Time;durP1;ratioP1;P1;durP2;ratioP2;P2;SDS_P1;SDS_P2;PMS_P1;PMS_P2;Temp;Humidity;BMP_temperature;BMP_pressure;BME280_temperature;BME280_humidity;BME280_pressure;Samples;Min_cycle;Max_cycle;Signal;HPM_P1;HPM_P2
2022/03/09 00:00:59;;;;;;;2.90;2.80;;;;;;;1.38;51.50;101759.75;6006300;23;20029;-76
2022/03/09 00:03:26;;;;;;;4.55;4.35;;;;;;;0.69;52.00;101671.59;6024828;23;20065;-74
2022/03/09 00:05:52;;;;;;;2.72;2.63;;;;;;;1.08;51.79;101752.72;6013522;23;20031;-76
2022/03/09 00:08:19;;;;;;;4.28;4.07;;;;;;;0.57;52.60;101689.63;6022741;23;20054;-75
2022/03/09 00:10:47;;;;;;;2.70;2.60;;;;;;;0.88;52.83;101746.59;6005069;23;20102;-75
2022/03/09 00:13:14;;;;;;;2.83;2.72;;;;;;;0.76;53.10;101748.28;6031310;23;20054;-76
2022/03/09 00:15:40;;;;;;;2.80;2.70;;;;;;;0.58;52.96;101756.81;5998682;23;20019;-74
2022/03/09 00:18:06;;;;;;;2.70;2.60;;;;;;;0.39;53.25;101680.06;6031111;23;20027;-75
2022/03/09 00:20:33;;;;;;;3.70;3.60;;;;;;;0.99;53.44;101765.63;5981415;23;20023;-76
2022/03/09 00:22:59;;;;;;;2.80;2.70;;;;;;;0.89;52.91;101759.53;6032291;23;20019;-75
2022/03/09 00:25:27;;;;;;;3.92;3.78;;;;;;;0.37;53.23;101679.19;6006426;23;20030;-74
2022/03/09 00:27:54;;;;;;;2.70;2.60;;;;;;;1.03;53.25;101771.69;6030278;23;20515;-75
2022/03/09 00:30:20;;;;;;;3.90;3.75;;;;;;;-0.16;53.26;101577.38;6004854;23;20063;-74
2022/03/09 00:32:47;;;;;;;2.63;2.53;;;;;;;0.57;53.43;101702.53;6022119;23;20046;-75
2022/03/09 00:35:13;;;;;;;3.13;3.03;;;;;;;0.85;52.58;101747.47;6004655;23;20031;-76
2022/03/09 00:37:40;;;;;;;3.60;3.40;;;;;;;1.18;52.67;101801.06;6033647;23;20019;-74
2022/03/09 00:40:06;;;;;;;2.70;2.60;;;;;;;1.19;52.06;101779.50;6000686;23;20079;-74
2022/03/09 00:42:37;;;;;;;4.15;3.88;;;;;;;1.14;52.33;101770.88;6030623;23;20015;-76
2022/03/09 00:45:05;;;;;;;2.60;2.50;;;;;;;0.76;52.14;101708.66;5999437;23;20455;-75
2022/03/09 00:47:34;;;;;;;2.85;2.75;;;;;;;0.79;52.03;101704.38;6025138;23;21116;-74
2022/03/09 00:50:01;;;;;;;2.65;2.55;;;;;;;0.94;52.51;101744.06;6003345;23;20428;-75
2022/03/09 00:52:27;;;;;;;5.10;4.90;;;;;;;1.29;51.93;101805.41;6023142;23;20026;-74
2022/03/09 00:54:54;;;;;;;2.40;2.30;;;;;;;1.04;52.21;101753.56;6001842;23;20038;-76
2022/03/09 00:57:20;;;;;;;4.18;3.97;;;;;;;1.36;51.78;101804.53;6024801;23;20611;-76
2022/03/09 00:59:46;;;;;;;2.70;2.60;;;;;;;1.25;52.27;101782.97;5986387;23;20019;-75
2022/03/09 01:02:13;;;;;;;2.75;2.65;;;;;;;1.26;51.79;101774.34;6027292;23;20026;-77
2022/03/09 01:04:40;;;;;;;3.03;2.92;;;;;;;0.98;52.56;101730.28;6031768;23;20026;-75
2022/03/09 01:07:07;;;;;;;2.38;2.28;;;;;;;1.08;52.67;101746.69;6036365;23;20018;-74
2022/03/09 01:09:34;;;;;;;2.95;2.85;;;;;;;0.85;51.70;101698.38;5991676;23;20572;-75
2022/03/09 01:12:00;;;;;;;2.88;2.67;;;;;;;0.90;51.83;101711.31;6030191;23;20076;-74
2022/03/09 01:14:26;;;;;;;4.15;3.95;;;;;;;1.33;52.00;101787.31;5999049;23;20027;-73
2022/03/09 01:16:53;;;;;;;2.40;2.30;;;;;;;1.14;52.51;101769.97;6018241;23;20574;-74
2022/03/09 01:19:19;;;;;;;4.03;3.83;;;;;;;0.91;53.09;101736.31;5999245;23;20027;-74
2022/03/09 01:21:46;;;;;;;2.80;2.70;;;;;;;1.06;52.62;101771.69;6037315;23;20018;-73
2022/03/09 01:24:12;;;;;;;4.53;4.32;;;;;;;0.78;52.27;101732.78;6031035;23;20019;-75
2022/03/09 01:26:39;;;;;;;2.60;2.50;;;;;;;0.60;52.60;101679.31;6031831;23;20594;-74
2022/03/09 01:29:07;;;;;;;2.40;2.30;;;;;;;0.97;52.32;101728.56;6030743;23;20023;-75
2022/03/09 01:31:34;;;;;;;3.22;3.13;;;;;;;0.05;51.75;101555.97;6030636;23;20049;-73
2022/03/09 01:34:00;;;;;;;3.00;2.90;;;;;;;1.39;52.04;101789.06;5965679;24;20071;-74
2022/03/09 01:36:27;;;;;;;4.55;4.35;;;;;;;0.61;52.94;101686.22;6004699;23;20480;-72
2022/03/09 01:38:53;;;;;;;2.35;2.25;;;;;;;0.95;52.53;101725.13;5969324;24;20018;-74
2022/03/09 01:41:20;;;;;;;4.28;4.07;;;;;;;1.12;52.60;101740.69;5997682;23;20037;-75
2022/03/09 01:44:24;;;;;;;2.80;2.70;;;;;;;1.32;52.49;101775.25;5973851;23;20023;-75
2022/03/09 01:46:53;;;;;;;2.38;2.28;;;;;;;1.21;53.05;101779.50;5972529;23;20033;-75
2022/03/09 01:49:22;;;;;;;4.22;4.03;;;;;;;0.93;53.05;101750.94;5959457;23;20091;-74
2022/03/09 01:51:52;;;;;;;2.60;2.50;;;;;;;0.83;53.16;101725.06;5996523;23;20035;-74
2022/03/09 01:54:19;;;;;;;4.22;4.05;;;;;;;1.22;53.15;101777.78;5968519;24;20047;-74
2022/03/09 01:56:46;;;;;;;2.50;2.40;;;;;;;1.19;53.47;101774.31;5985935;23;20082;-74
2022/03/09 01:59:14;;;;;;;2.53;2.42;;;;;;;0.14;53.10;101645.47;5976147;23;20102;-76
2022/03/09 02:01:42;;;;;;;2.83;2.72;;;;;;;0.98;53.15;101782.88;5990261;23;20019;-74
2022/03/09 02:04:10;;;;;;;3.25;2.95;;;;;;;0.91;53.65;101769.91;5965934;24;20036;-75
2022/03/09 02:06:38;;;;;;;2.40;2.30;;;;;;;-0.56;53.59;101525.53;5996142;23;20496;-73
2022/03/09 02:11:53;;;;;;;2.70;2.60;;;;;;;0.87;53.82;101775.91;6003904;23;20031;-74
2022/03/09 02:14:28;;;;;;;4.28;4.05;;;;;;;0.70;53.98;101783.53;5973590;24;20035;-74
2022/03/09 02:16:57;;;;;;;2.58;2.47;;;;;;;0.24;54.85;101723.84;5989718;23;20054;-74
2022/03/09 02:19:24;;;;;;;4.80;4.55;;;;;;;0.28;55.64;101731.66;5964341;24;20027;-73
2022/03/09 02:22:21;;;;;;;2.70;2.60;;;;;;;-0.13;54.76;101698.63;5990595;23;20086;-73
2022/03/09 02:24:49;;;;;;;2.30;2.20;;;;;;;-0.40;55.56;101642.53;5968153;23;20031;-72
2022/03/09 02:27:17;;;;;;;2.88;2.78;;;;;;;0.26;54.96;101758.28;5991590;23;20089;-75
2022/03/09 02:29:44;;;;;;;2.60;2.50;;;;;;;-0.37;55.68;101657.19;5994238;23;20582;-75
2022/03/09 02:32:11;;;;;;;2.53;2.42;;;;;;;0.16;56.07;101765.09;5971636;23;20052;-74
2022/03/09 02:34:38;;;;;;;2.33;2.22;;;;;;;-0.19;56.20;101726.97;6021019;23;20045;-73
2022/03/09 02:37:06;;;;;;;2.65;2.55;;;;;;;-0.24;56.10;101736.38;6008489;23;20035;-76
2022/03/09 02:39:32;;;;;;;2.40;2.30;;;;;;;-0.03;56.96;101795.91;6038635;23;20030;-76
2022/03/09 02:41:59;;;;;;;2.53;2.42;;;;;;;-0.05;56.63;101789.88;6005333;23;20037;-76
2022/03/09 02:44:25;;;;;;;5.22;4.88;;;;;;;-0.32;56.33;101748.31;6031178;23;20102;-75
2022/03/09 02:46:52;;;;;;;2.50;2.40;;;;;;;-0.32;57.57;101745.75;6000937;23;20023;-76
2022/03/09 02:49:18;;;;;;;4.55;4.35;;;;;;;-0.40;57.05;101761.19;6027038;23;20146;-75
2022/03/09 02:51:45;;;;;;;2.65;2.55;;;;;;;-0.45;56.63;101734.47;5981282;23;20043;-74
2022/03/09 02:54:11;;;;;;;2.40;2.30;;;;;;;-0.87;56.57;101672.16;6022239;23;20027;-76
2022/03/09 02:56:38;;;;;;;2.60;2.50;;;;;;;-1.08;56.68;101612.69;6000395;23;20039;-74
2022/03/09 02:59:04;;;;;;;2.42;2.33;;;;;;;0.04;56.72;101780.47;6006088;23;20029;-75
2022/03/09 03:01:31;;;;;;;4.55;4.35;;;;;;;-0.28;56.98;101730.34;6006540;23;20078;-74
2022/03/09 03:03:57;;;;;;;2.40;2.30;;;;;;;-0.19;56.44;101732.13;6027294;23;20106;-74
2022/03/09 03:06:24;;;;;;;4.18;3.97;;;;;;;0.06;56.87;101776.19;6000396;23;20119;-74
2022/03/09 03:08:51;;;;;;;2.60;2.50;;;;;;;-0.26;56.78;101720.00;6035442;23;20601;-74
2022/03/09 03:11:17;;;;;;;3.83;3.65;;;;;;;-0.32;56.91;101712.22;6003370;23;20035;-74
2022/03/09 03:13:45;;;;;;;2.70;2.60;;;;;;;-0.09;56.14;101764.88;6027772;23;20027;-74
2022/03/09 03:16:12;;;;;;;2.42;2.33;;;;;;;-0.06;56.39;101764.03;6010963;23;20015;-75
2022/03/09 03:18:39;;;;;;;2.47;2.38;;;;;;;-0.09;56.96;101757.16;6028556;23;20081;-76
2022/03/09 03:21:05;;;;;;;2.90;2.80;;;;;;;-0.17;56.71;101761.38;6005613;23;20042;-75
2022/03/09 03:23:33;;;;;;;3.60;3.50;;;;;;;-0.35;56.43;101749.16;6038105;23;20182;-75
2022/03/09 03:26:03;;;;;;;2.20;2.10;;;;;;;-1.12;57.39;101639.25;6007819;23;20026;-74
2022/03/09 03:28:31;;;;;;;4.75;4.55;;;;;;;-0.48;57.63;101765.34;6032696;23;20074;-74
2022/03/09 03:30:58;;;;;;;2.60;2.50;;;;;;;-0.54;57.87;101753.28;6001286;23;20046;-76
2022/03/09 03:33:25;;;;;;;4.30;4.10;;;;;;;-0.58;58.33;101756.69;6024711;23;20045;-74
2022/03/09 03:35:51;;;;;;;2.30;2.20;;;;;;;-0.78;57.90;101730.69;6008231;23;20019;-74
2022/03/09 03:38:19;;;;;;;4.00;3.83;;;;;;;-0.83;58.61;101729.75;6023861;23;20391;-74
2022/03/09 03:40:46;;;;;;;2.50;2.40;;;;;;;-1.01;57.47;101700.34;6007271;23;20029;-75
2022/03/09 03:43:12;;;;;;;2.67;2.58;;;;;;;-0.75;58.46;101753.03;6027805;23;20566;-76
2022/03/09 03:45:39;;;;;;;2.50;2.40;;;;;;;-0.91;59.39;101727.09;5998742;23;20023;-74
2022/03/09 03:48:06;;;;;;;2.85;2.75;;;;;;;-1.27;58.57;101678.56;6007410;23;20070;-74
2022/03/09 03:50:33;;;;;;;2.95;2.85;;;;;;;-0.83;58.52;101753.81;5998301;23;20827;-75
2022/03/09 03:53:00;;;;;;;2.40;2.30;;;;;;;-0.86;58.01;101761.53;6025932;23;20015;-75
2022/03/09 03:55:26;;;;;;;4.10;3.90;;;;;;;-0.90;59.08;101758.88;5998751;23;20037;-74
2022/03/09 03:57:52;;;;;;;2.40;2.30;;;;;;;-0.95;58.34;101756.25;6026205;23;20082;-75
2022/03/09 04:00:19;;;;;;;4.03;3.85;;;;;;;-1.01;59.13;101756.16;6031765;23;20634;-74
2022/03/09 04:02:45;;;;;;;2.30;2.20;;;;;;;-1.83;60.15;101620.38;6004034;23;20011;-74
2022/03/09 04:05:12;;;;;;;2.50;2.40;;;;;;;-3.14;59.42;101435.13;6033820;23;20563;-77
2022/03/09 04:07:38;;;;;;;2.40;2.30;;;;;;;-1.47;59.81;101698.91;5998095;23;20601;-73
2022/03/09 04:10:05;;;;;;;2.60;2.50;;;;;;;-1.42;60.52;101715.31;6036663;23;20094;-74
2022/03/09 04:12:31;;;;;;;4.13;3.92;;;;;;;-1.53;60.52;101688.53;5997991;23;20020;-74
2022/03/09 04:15:01;;;;;;;3.13;2.92;;;;;;;-1.73;61.96;101665.09;6029945;23;20041;-74
2022/03/09 04:17:28;;;;;;;3.90;3.75;;;;;;;-1.46;61.35;101701.50;5999970;23;20029;-74
2022/03/09 04:19:54;;;;;;;2.42;2.33;;;;;;;-2.14;61.35;101593.38;6028872;23;20109;-75
2022/03/09 04:22:21;;;;;;;4.57;4.38;;;;;;;-1.61;61.93;101697.00;6008738;23;20280;-75
2022/03/09 04:24:47;;;;;;;2.10;2.00;;;;;;;-1.38;62.10;101734.22;6030213;23;20528;-74
2022/03/09 04:27:14;;;;;;;5.03;4.82;;;;;;;-1.45;61.54;101726.41;6005646;23;20047;-76
2022/03/09 04:29:40;;;;;;;2.45;2.35;;;;;;;-1.29;61.73;101760.09;6030952;23;20022;-75
2022/03/09 04:32:11;;;;;;;2.45;2.35;;;;;;;-1.77;62.39;101681.34;5995394;23;20107;-76
2022/03/09 04:34:37;;;;;;;2.20;2.10;;;;;;;-1.41;62.21;101712.72;6005975;23;20052;-72
2022/03/09 04:37:04;;;;;;;2.20;2.10;;;;;;;-1.12;61.58;101748.31;6005899;23;20252;-74
2022/03/09 04:39:31;;;;;;;4.25;4.05;;;;;;;-1.31;61.32;101682.81;6024620;23;20082;-74
2022/03/09 04:41:57;;;;;;;2.30;2.20;;;;;;;-0.69;60.68;101768.59;6006697;23;20047;-77
2022/03/09 04:44:23;;;;;;;4.35;4.15;;;;;;;-1.21;59.01;101658.03;6011838;23;20551;-73
2022/03/09 04:46:50;;;;;;;2.72;2.53;;;;;;;-0.44;58.29;101757.69;5997742;23;20190;-73
2022/03/09 04:49:16;;;;;;;2.65;2.55;;;;;;;-0.74;58.28;101692.91;6025390;23;20098;-73
2022/03/09 04:51:43;;;;;;;2.38;2.28;;;;;;;-0.40;57.78;101732.81;6013507;23;20027;-75
2022/03/09 04:54:12;;;;;;;2.30;2.20;;;;;;;-0.69;57.32;101694.69;6040036;23;20094;-75
2022/03/09 04:56:38;;;;;;;2.10;2.00;;;;;;;-0.70;58.50;101725.59;5999967;23;20035;-73
2022/03/09 04:59:10;;;;;;;2.20;2.10;;;;;;;-0.77;58.37;101731.53;6026979;23;20029;-71
2022/03/09 05:01:37;;;;;;;2.17;2.08;;;;;;;-0.77;58.21;101755.59;6004135;23;20016;-75
2022/03/09 05:04:03;;;;;;;2.10;2.00;;;;;;;-1.78;59.21;101548.38;6028037;23;20041;-73
2022/03/09 05:06:30;;;;;;;3.90;3.75;;;;;;;-0.25;57.39;101760.44;5999700;23;20944;-75
2022/03/09 05:08:56;;;;;;;2.35;2.25;;;;;;;-0.22;57.54;101761.34;6033247;23;20010;-77
2022/03/09 05:11:23;;;;;;;3.78;3.65;;;;;;;-0.97;57.44;101654.03;6000214;23;20047;-76
2022/03/09 05:13:49;;;;;;;2.63;2.53;;;;;;;-1.04;57.92;101681.44;6033370;23;20010;-74
2022/03/09 05:16:16;;;;;;;2.72;2.63;;;;;;;-0.68;57.54;101767.72;5994307;23;20027;-74
2022/03/09 05:18:42;;;;;;;2.33;2.22;;;;;;;-0.79;59.78;101766.75;6028082;23;20020;-75
2022/03/09 05:21:09;;;;;;;2.85;2.75;;;;;;;-0.57;58.93;101765.28;5987770;23;20374;-73
2022/03/09 05:23:36;;;;;;;2.17;2.08;;;;;;;-0.50;58.68;101741.28;6002005;23;20031;-77
2022/03/09 05:26:02;;;;;;;2.25;2.15;;;;;;;-0.44;57.75;101762.84;6008037;23;20086;-75
2022/03/09 05:28:29;;;;;;;3.47;3.38;;;;;;;-0.41;58.18;101769.75;6017083;23;20034;-73
2022/03/09 05:30:55;;;;;;;2.20;2.10;;;;;;;-0.45;58.00;101783.47;5995622;23;20027;-73
2022/03/09 05:33:22;;;;;;;3.67;3.58;;;;;;;-0.79;58.51;101712.63;6026382;23;20019;-75
2022/03/09 05:35:49;;;;;;;2.35;2.25;;;;;;;-0.34;57.86;101781.88;6001506;23;20035;-74
2022/03/09 05:38:15;;;;;;;2.47;2.38;;;;;;;-0.57;58.11;101737.78;6021974;23;20019;-75
2022/03/09 05:40:42;;;;;;;2.22;2.13;;;;;;;-0.73;58.45;101726.44;6000669;23;20519;-74
2022/03/09 05:43:09;;;;;;;2.80;2.60;;;;;;;-1.39;58.27;101637.22;6028171;23;20023;-73
2022/03/09 05:45:35;;;;;;;2.38;2.28;;;;;;;-0.99;58.99;101710.69;6000232;23;20015;-73
2022/03/09 05:48:02;;;;;;;2.50;2.40;;;;;;;-0.41;59.30;101778.34;6024420;23;20030;-76
2022/03/09 05:50:28;;;;;;;4.63;4.43;;;;;;;-0.27;58.91;101785.38;6023739;23;20090;-73
2022/03/09 05:53:01;;;;;;;2.10;2.00;;;;;;;-0.26;57.48;101802.56;5996773;23;20058;-74
2022/03/09 05:55:27;;;;;;;4.35;4.15;;;;;;;-0.58;57.91;101741.22;6023968;23;20534;-73
2022/03/09 05:57:54;;;;;;;2.30;2.20;;;;;;;-0.28;57.61;101804.25;6008707;23;20023;-73
2022/03/09 06:00:20;;;;;;;3.70;3.58;;;;;;;-0.66;58.19;101748.88;6023817;23;20054;-73
2022/03/09 06:02:47;;;;;;;2.40;2.30;;;;;;;-0.78;58.30;101737.53;6002026;23;20020;-74
2022/03/09 06:05:18;;;;;;;4.32;4.13;;;;;;;-0.93;58.02;101710.75;6030183;23;20023;-74
2022/03/09 06:07:47;;;;;;;2.30;2.20;;;;;;;-0.73;57.80;101735.88;5994980;23;20500;-74
2022/03/09 06:10:14;;;;;;;2.33;2.22;;;;;;;-0.88;57.10;101685.91;6030176;23;20042;-73
2022/03/09 06:12:40;;;;;;;2.30;2.20;;;;;;;-0.21;57.29;101793.16;5987263;23;20016;-75
2022/03/09 06:15:07;;;;;;;2.22;2.13;;;;;;;-0.44;58.31;101755.13;6022208;23;20011;-74
2022/03/09 06:17:43;;;;;;;2.50;2.40;;;;;;;-0.27;57.19;101801.69;6000864;23;20140;-74
2022/03/09 06:20:11;;;;;;;3.03;2.90;;;;;;;-0.48;58.04;101775.66;6019406;23;20014;-73
2022/03/09 06:22:38;;;;;;;2.40;2.30;;;;;;;-0.21;58.00;101806.06;6026423;23;21342;-73
2022/03/09 06:25:05;;;;;;;2.15;2.05;;;;;;;-0.39;58.19;101774.94;6008323;23;20059;-75
2022/03/09 06:27:39;;;;;;;3.90;3.75;;;;;;;-0.74;58.04;101721.25;6027026;23;20011;-73
2022/03/09 06:30:06;;;;;;;2.30;2.20;;;;;;;-0.48;57.13;101753.34;5999699;23;20074;-73
2022/03/09 06:32:33;;;;;;;2.95;2.85;;;;;;;-0.33;57.45;101782.72;6020312;23;20507;-73
2022/03/09 06:35:00;;;;;;;2.50;2.40;;;;;;;-0.22;57.61;101804.31;6003080;23;20058;-73
2022/03/09 06:37:27;;;;;;;4.10;3.90;;;;;;;-1.18;57.07;101631.44;6028467;23;20022;-74
2022/03/09 06:39:56;;;;;;;2.20;2.10;;;;;;;-0.89;56.94;101701.34;5973228;23;20044;-73
2022/03/09 06:42:24;;;;;;;4.28;4.07;;;;;;;-0.07;57.26;101813.94;6035937;23;20026;-74
2022/03/09 06:44:51;;;;;;;2.30;2.20;;;;;;;0.02;57.17;101828.63;6022167;23;20026;-74
2022/03/09 06:47:18;;;;;;;3.92;3.75;;;;;;;-0.11;57.07;101802.72;6035352;23;20021;-74
2022/03/09 06:49:44;;;;;;;2.20;2.10;;;;;;;-0.07;56.70;101799.31;6003888;23;20086;-73
2022/03/09 06:52:11;;;;;;;2.40;2.30;;;;;;;0.29;56.36;101828.88;6021197;23;20802;-73
2022/03/09 06:54:38;;;;;;;2.20;2.10;;;;;;;0.18;55.77;101779.75;5992423;23;20023;-72
2022/03/09 06:57:04;;;;;;;2.38;2.25;;;;;;;0.39;55.48;101810.03;6035741;23;20045;-73
2022/03/09 06:59:31;;;;;;;3.65;3.55;;;;;;;0.45;55.03;101811.81;5998721;23;20043;-73
2022/03/09 07:01:57;;;;;;;2.22;2.13;;;;;;;0.59;54.57;101832.56;6038884;23;20476;-73
2022/03/09 07:04:24;;;;;;;4.00;3.83;;;;;;;0.70;54.95;101846.44;6002326;23;20057;-75
2022/03/09 07:06:51;;;;;;;2.40;2.30;;;;;;;0.85;53.92;101844.81;6031999;23;20759;-73
2022/03/09 07:09:17;;;;;;;3.70;3.47;;;;;;;0.85;53.65;101830.16;6004940;23;20033;-72
2022/03/09 07:11:44;;;;;;;2.88;2.70;;;;;;;1.11;53.37;101851.00;6023294;23;20086;-73
2022/03/09 07:14:11;;;;;;;2.70;2.60;;;;;;;0.92;53.29;101820.72;6004180;23;20470;-73
2022/03/09 07:16:38;;;;;;;2.50;2.40;;;;;;;0.55;52.58;101707.69;6029530;23;20042;-75
2022/03/09 07:19:04;;;;;;;2.63;2.53;;;;;;;1.40;52.05;101819.22;5999301;23;20031;-74
2022/03/09 07:21:31;;;;;;;4.25;4.05;;;;;;;1.51;51.41;101793.41;6044258;23;20081;-74
2022/03/09 07:23:59;;;;;;;2.40;2.30;;;;;;;1.67;50.67;101792.59;6005169;23;20453;-71
2022/03/09 07:26:25;;;;;;;4.47;4.28;;;;;;;2.07;50.25;101841.84;6025903;23;20049;-75
2022/03/09 07:28:52;;;;;;;2.80;2.70;;;;;;;2.23;49.61;101841.88;6027779;23;20057;-71
2022/03/09 07:31:19;;;;;;;4.05;3.85;;;;;;;2.15;49.19;101800.41;6028243;23;20357;-73
2022/03/09 07:33:45;;;;;;;2.40;2.30;;;;;;;2.27;48.96;101805.59;6003615;23;20676;-74
2022/03/09 07:36:12;;;;;;;3.05;2.92;;;;;;;2.63;48.21;101845.31;6032038;23;20074;-74
2022/03/09 07:38:42;;;;;;;2.72;2.63;;;;;;;2.58;48.77;101815.94;5996574;23;20459;-72
2022/03/09 07:41:29;;;;;;;4.03;3.83;;;;;;;2.71;48.34;101821.97;6021748;23;20022;-73
2022/03/09 07:43:59;;;;;;;2.63;2.53;;;;;;;1.87;47.76;101670.97;5999485;23;20127;-74
2022/03/09 07:46:25;;;;;;;4.38;4.18;;;;;;;2.93;47.36;101830.56;6005458;23;20015;-73
2022/03/09 07:48:52;;;;;;;2.70;2.60;;;;;;;2.97;46.57;101819.31;6000570;23;20015;-74
2022/03/09 07:51:18;;;;;;;5.25;4.97;;;;;;;3.36;46.67;101862.41;6023163;23;20035;-74
2022/03/09 07:53:45;;;;;;;2.70;2.60;;;;;;;3.47;46.85;101867.59;5975939;23;20011;-74
2022/03/09 07:56:13;;;;;;;8.57;2.70;;;;;;;3.03;46.09;101780.41;6016207;23;20109;-75
2022/03/09 07:58:39;;;;;;;3.50;3.30;;;;;;;3.64;45.53;101875.28;6003013;23;20023;-73
2022/03/09 08:01:06;;;;;;;3.13;2.92;;;;;;;3.50;45.39;101831.22;6028954;23;20611;-74
2022/03/09 08:03:33;;;;;;;3.88;3.67;;;;;;;3.82;45.23;101878.69;5987125;23;20112;-74
2022/03/09 08:06:05;;;;;;;2.97;2.88;;;;;;;3.52;44.62;101808.72;6032083;23;20030;-74
2022/03/09 08:08:32;;;;;;;4.00;3.83;;;;;;;3.98;44.36;101881.16;5993280;23;20046;-74
2022/03/09 08:10:58;;;;;;;2.83;2.72;;;;;;;3.99;44.44;101869.91;6032711;23;20042;-74
2022/03/09 08:13:24;;;;;;;4.40;4.20;;;;;;;3.86;44.03;101823.25;5996006;23;20043;-73
2022/03/09 08:15:51;;;;;;;3.15;3.05;;;;;;;4.15;44.30;101860.28;5999970;23;20046;-74
2022/03/09 08:18:18;;;;;;;3.95;3.78;;;;;;;4.43;43.43;101880.91;6001191;23;20074;-74
2022/03/09 08:20:44;;;;;;;2.75;2.65;;;;;;;4.21;43.84;101830.81;6027760;23;20447;-73
2022/03/09 08:23:11;;;;;;;2.90;2.80;;;;;;;4.30;43.35;101809.09;6007096;23;20712;-74
2022/03/09 08:25:38;;;;;;;3.08;2.97;;;;;;;4.57;43.78;101854.75;6033510;23;20043;-74
2022/03/09 08:28:05;;;;;;;2.83;2.72;;;;;;;4.76;43.88;101876.28;6002638;23;20075;-73
2022/03/09 08:30:32;;;;;;;4.35;4.15;;;;;;;4.66;42.44;101849.50;6024143;23;20021;-74
2022/03/09 08:32:58;;;;;;;2.80;2.70;;;;;;;3.37;41.96;101617.66;5995121;23;20023;-73
2022/03/09 08:35:29;;;;;;;4.80;4.60;;;;;;;5.05;42.33;101902.03;6027067;23;20068;-74
2022/03/09 08:37:56;;;;;;;3.30;3.10;;;;;;;5.10;42.13;101892.41;5996768;23;20016;-74
2022/03/09 08:40:22;;;;;;;4.60;4.40;;;;;;;5.25;41.02;101895.72;6030353;23;20037;-73
2022/03/09 08:42:49;;;;;;;3.55;3.35;;;;;;;5.39;41.20;101901.63;5999951;23;20073;-74
2022/03/09 08:45:18;;;;;;;4.57;4.15;;;;;;;5.30;41.29;101867.94;6030068;23;20444;-73
2022/03/09 08:47:44;;;;;;;3.03;2.92;;;;;;;5.53;41.01;101896.28;5999013;23;20023;-73
2022/03/09 08:50:11;;;;;;;3.35;3.25;;;;;;;5.54;41.03;101900.63;6001689;23;20070;-73
2022/03/09 08:52:57;;;;;;;3.05;2.95;;;;;;;5.46;41.45;101873.81;6004273;23;20013;-73
2022/03/09 08:55:23;;;;;;;4.60;4.40;;;;;;;5.60;40.58;101874.50;6034269;23;20118;-73
2022/03/09 08:57:50;;;;;;;3.30;3.13;;;;;;;5.72;39.28;101881.31;6001347;23;20019;-73
2022/03/09 09:00:16;;;;;;;3.28;3.17;;;;;;;5.53;39.09;101844.19;6028752;23;20057;-74
2022/03/09 09:02:43;;;;;;;3.28;3.17;;;;;;;6.06;39.37;101904.34;6002267;23;20019;-73
2022/03/09 09:05:10;;;;;;;3.03;2.92;;;;;;;6.17;39.14;101897.19;6029790;23;20034;-72
2022/03/09 09:07:37;;;;;;;3.30;3.20;;;;;;;6.26;39.08;101881.44;5973171;23;20027;-73
2022/03/09 09:10:04;;;;;;;3.58;3.38;;;;;;;6.32;39.09;101890.91;6032401;23;20054;-74
2022/03/09 09:12:31;;;;;;;4.65;4.45;;;;;;;6.41;38.40;101892.50;6024804;23;20243;-73
2022/03/09 09:14:57;;;;;;;3.20;3.10;;;;;;;6.54;38.29;101884.47;5973043;23;20035;-73
2022/03/09 09:17:25;;;;;;;4.85;4.65;;;;;;;6.14;38.03;101806.03;6026014;23;20036;-74
2022/03/09 09:20:04;;;;;;;3.15;3.05;;;;;;;6.00;38.87;101772.38;5999224;23;20027;-73
2022/03/09 09:22:30;;;;;;;5.15;4.95;;;;;;;6.79;37.12;101895.38;6023163;23;20044;-74
2022/03/09 09:25:17;;;;;;;3.50;3.40;;;;;;;6.86;37.81;101888.28;6004775;23;20047;-74
2022/03/09 09:27:43;;;;;;;5.47;4.18;;;;;;;7.00;37.36;101890.66;6025693;23;20090;-71
2022/03/09 09:30:14;;;;;;;4.30;4.00;;;;;;;6.80;37.99;101846.66;6004602;23;20149;-72
2022/03/09 09:32:41;;;;;;;3.20;3.10;;;;;;;7.13;36.85;101875.59;6020215;23;20054;-73
2022/03/09 09:35:10;;;;;;;3.40;3.30;;;;;;;7.29;36.92;101882.25;6002448;23;20024;-73
2022/03/09 09:37:37;;;;;;;4.32;4.13;;;;;;;7.41;36.41;101872.47;6004700;23;20093;-72
2022/03/09 09:40:07;;;;;;;3.50;3.40;;;;;;;7.52;35.88;101897.47;6001014;23;20031;-72
2022/03/09 09:42:34;;;;;;;4.18;3.97;;;;;;;7.42;36.41;101867.22;6045178;23;20508;-74
2022/03/09 09:45:19;;;;;;;4.90;4.70;;;;;;;7.64;37.03;101864.13;6018841;23;20029;-73
2022/03/09 09:47:49;;;;;;;3.60;3.40;;;;;;;8.01;36.75;101884.25;6027521;23;20019;-73
2022/03/09 09:50:17;;;;;;;5.25;4.95;;;;;;;8.11;36.64;101859.63;6001772;23;20038;-74
2022/03/09 09:52:44;;;;;;;4.03;3.83;;;;;;;7.56;35.57;101765.06;6022228;23;20026;-74
2022/03/09 09:55:11;;;;;;;3.40;3.30;;;;;;;7.06;35.04;101688.69;6001607;23;20473;-73
2022/03/09 09:57:38;;;;;;;3.60;3.45;;;;;;;8.22;36.06;101883.78;6029765;23;20089;-73
2022/03/09 10:00:07;;;;;;;3.72;3.58;;;;;;;8.41;34.85;101891.19;6000389;23;20038;-73
2022/03/09 10:02:37;;;;;;;4.07;3.88;;;;;;;7.86;34.75;101766.09;6017618;23;20041;-73
2022/03/09 10:05:04;;;;;;;3.78;3.63;;;;;;;8.28;34.76;101815.63;6002680;23;20022;-73
2022/03/09 10:07:31;;;;;;;5.18;4.97;;;;;;;8.59;34.80;101867.22;6024429;23;20031;-73
2022/03/09 10:09:57;;;;;;;3.38;3.28;;;;;;;8.77;35.93;101869.34;6003048;23;20605;-73
2022/03/09 10:12:29;;;;;;;5.85;5.55;;;;;;;8.55;34.48;101831.56;6024726;23;20617;-73
2022/03/09 10:15:00;;;;;;;4.10;3.90;;;;;;;9.09;34.67;101887.75;6001382;23;20074;-74
2022/03/09 10:17:34;;;;;;;5.15;4.95;;;;;;;9.14;34.16;101891.97;6034324;23;20022;-74
2022/03/09 10:20:10;;;;;;;3.90;3.70;;;;;;;9.12;34.42;101912.09;5997516;23;20587;-75
2022/03/09 10:22:41;;;;;;;3.85;3.67;;;;;;;8.24;34.69;101722.47;6030003;23;20019;-74
2022/03/09 10:25:20;;;;;;;4.72;4.53;;;;;;;9.03;34.29;101830.31;6001881;23;20018;-74
2022/03/09 10:27:52;;;;;;;4.03;3.83;;;;;;;9.02;32.86;101871.34;6026545;23;20029;-74
2022/03/09 10:30:33;;;;;;;5.10;4.90;;;;;;;9.24;33.87;101910.91;6001401;23;20028;-73
2022/03/09 10:33:07;;;;;;;3.58;3.47;;;;;;;9.42;33.46;101877.22;6029059;23;20010;-75
2022/03/09 10:35:33;;;;;;;4.18;3.97;;;;;;;9.44;33.49;101872.81;6026548;23;20015;-74
2022/03/09 10:38:05;;;;;;;3.60;3.50;;;;;;;8.48;32.78;101707.91;6011314;23;20017;-74
2022/03/09 10:40:40;;;;;;;6.18;5.68;;;;;;;9.70;32.86;101866.81;6023355;23;20036;-74
2022/03/09 10:43:22;;;;;;;3.47;3.38;;;;;;;9.67;31.82;101845.94;6009895;23;20026;-75
2022/03/09 10:46:13;;;;;;;4.88;4.68;;;;;;;9.96;32.67;101868.63;6035946;23;20082;-74
2022/03/09 10:49:00;;;;;;;4.18;3.97;;;;;;;10.06;31.27;101869.22;5999905;23;20023;-73
2022/03/09 10:51:42;;;;;;;6.47;6.05;;;;;;;10.18;30.72;101869.69;6023148;23;20031;-74
2022/03/09 10:54:19;;;;;;;3.90;3.77;;;;;;;10.04;30.73;101850.03;5999599;23;20027;-73
2022/03/09 10:56:46;;;;;;;3.90;3.70;;;;;;;9.86;30.45;101812.13;6001013;23;20035;-74
2022/03/09 10:59:24;;;;;;;4.20;3.90;;;;;;;9.95;31.55;101831.06;6025785;23;20784;-73
2022/03/09 11:02:08;;;;;;;5.45;5.15;;;;;;;10.26;31.35;101853.69;6030142;23;20465;-74
2022/03/09 11:04:37;;;;;;;4.85;4.65;;;;;;;10.27;30.06;101847.56;6002768;23;20343;-74
2022/03/09 11:07:04;;;;;;;4.43;4.22;;;;;;;10.36;30.54;101860.41;6025506;23;20023;-74
2022/03/09 11:09:31;;;;;;;6.03;5.72;;;;;;;10.36;30.10;101843.78;5997557;23;21191;-74
2022/03/09 11:11:59;;;;;;;4.30;4.10;;;;;;;10.57;30.51;101845.72;6022920;23;20053;-73
2022/03/09 11:14:26;;;;;;;5.65;5.35;;;;;;;10.70;30.33;101819.88;6005276;23;20044;-74
2022/03/09 11:16:57;;;;;;;4.72;4.43;;;;;;;11.11;30.42;101840.38;6034921;23;20030;-76
2022/03/09 11:19:24;;;;;;;5.53;5.30;;;;;;;10.72;29.66;101776.09;5972850;23;20031;-74
2022/03/09 11:21:51;;;;;;;4.60;4.40;;;;;;;11.23;29.52;101834.66;6027579;23;20038;-75
2022/03/09 11:24:19;;;;;;;4.75;4.55;;;;;;;10.85;29.23;101744.97;6025044;23;20504;-75
2022/03/09 11:26:53;;;;;;;5.15;4.70;;;;;;;11.58;28.87;101837.72;6022717;23;20018;-74
2022/03/09 11:29:35;;;;;;;6.50;6.10;;;;;;;11.77;27.83;101835.25;5996861;23;20059;-75
2022/03/09 11:32:05;;;;;;;4.60;4.30;;;;;;;11.50;28.02;101798.56;6026602;23;20029;-74
2022/03/09 11:34:44;;;;;;;6.30;5.97;;;;;;;11.88;28.01;101829.56;6009494;23;20022;-74
2022/03/09 11:37:16;;;;;;;4.85;4.55;;;;;;;11.88;27.88;101796.22;6005455;23;20054;-74